Time;durP1;ratioP1;P1;durP2;ratioP2;P2;SDS_P1;SDS_P2;PMS_P1;PMS_P2;Temp;Humidity;BMP_temperature;BMP_pressure;BME280_temperature;BME280_humidity;BME280_pressure;Samples;Min_cycle;Max_cycle;Signal;HPM_P1;HPM_P2
2022/05/29 00:00:51;;;;;;;3.17;0.90;;;10.30;99.90;;;;;;5002955;28;20438;-48
2022/05/29 00:03:17;;;;;;;4.38;0.63;;;10.30;99.90;;;;;;5006481;28;20042;-50
2022/05/29 00:05:45;;;;;;;3.30;0.80;;;10.30;99.90;;;;;;5004878;28;20125;-52
2022/05/29 00:08:25;;;;;;;1.85;0.63;;;10.30;99.90;;;;;;5005094;28;20046;-45
2022/05/29 00:10:50;;;;;;;2.72;0.65;;;10.20;99.90;;;;;;5002638;28;20048;-48
2022/05/29 00:13:16;;;;;;;2.08;0.60;;;10.20;99.90;;;;;;4999614;28;20129;-49
2022/05/29 00:15:42;;;;;;;5.22;0.50;;;10.20;99.90;;;;;;4998939;28;20056;-51
2022/05/29 00:18:08;;;;;;;5.72;0.80;;;10.20;99.90;;;;;;5001077;28;20546;-46
2022/05/29 00:20:35;;;;;;;3.50;0.60;;;10.20;99.90;;;;;;5000119;28;20044;-48
2022/05/29 00:23:02;;;;;;;2.90;0.90;;;10.20;99.90;;;;;;5000584;28;20435;-49
2022/05/29 00:25:27;;;;;;;4.07;0.85;;;10.20;99.90;;;;;;5001487;28;20042;-48
2022/05/29 00:27:53;;;;;;;4.93;0.75;;;10.20;99.90;;;;;;5004706;28;20403;-49
2022/05/29 00:30:19;;;;;;;3.45;0.77;;;10.10;99.90;;;;;;5003026;28;20034;-49
2022/05/29 00:32:45;;;;;;;2.65;0.57;;;10.20;99.90;;;;;;5005671;28;20125;-49
2022/05/29 00:35:10;;;;;;;4.65;0.88;;;10.20;99.90;;;;;;5004714;28;20062;-49
2022/05/29 00:37:39;;;;;;;5.45;1.15;;;10.20;99.90;;;;;;5004814;28;20510;-44
2022/05/29 00:40:47;;;;;;;3.58;1.02;;;10.20;99.90;;;;;;5004414;28;20125;-50
2022/05/29 00:43:13;;;;;;;3.42;0.90;;;10.30;99.90;;;;;;4986547;28;20055;-45
2022/05/29 00:45:53;;;;;;;7.97;1.00;;;10.30;99.90;;;;;;5005839;28;20042;-46
2022/05/29 00:48:19;;;;;;;4.28;1.20;;;10.40;99.90;;;;;;5006702;28;20452;-44
2022/05/29 00:50:47;;;;;;;2.30;0.70;;;10.40;99.90;;;;;;5004935;28;20140;-47
2022/05/29 00:53:14;;;;;;;3.88;0.80;;;10.40;99.90;;;;;;5007535;28;20042;-51
2022/05/29 00:55:45;;;;;;;4.35;1.02;;;10.50;99.90;;;;;;4986010;28;20503;-43
2022/05/29 00:58:11;;;;;;;5.18;0.80;;;10.50;99.90;;;;;;5004627;28;20034;-44
2022/05/29 01:00:37;;;;;;;4.10;1.00;;;10.50;99.90;;;;;;5006734;28;20049;-41
2022/05/29 01:03:04;;;;;;;5.30;1.30;;;10.50;99.90;;;;;;5005749;28;20116;-45
2022/05/29 01:05:32;;;;;;;2.65;1.30;;;10.50;99.90;;;;;;5001607;28;20080;-48
2022/05/29 01:08:20;;;;;;;4.88;0.90;;;10.50;99.90;;;;;;5006156;28;20759;-48
2022/05/29 01:10:54;;;;;;;4.38;0.95;;;10.50;99.90;;;;;;5002967;28;20054;-45
2022/05/29 01:13:47;;;;;;;3.30;0.70;;;10.50;99.90;;;;;;5013357;28;20503;-46
2022/05/29 01:16:15;;;;;;;;;;;10.40;99.90;;;;;;5009152;28;20467;-46
2022/05/29 01:19:18;;;;;;;6.40;1.48;;;10.40;99.90;;;;;;5007537;28;20012;-41
2022/05/29 01:22:08;;;;;;;8.23;1.35;;;10.40;99.90;;;;;;4976477;28;20053;-46
2022/05/29 01:25:00;;;;;;;7.45;0.90;;;10.40;99.90;;;;;;5004282;28;20129;-46
2022/05/29 01:27:40;;;;;;;8.00;1.33;;;10.40;99.90;;;;;;5003289;28;20046;-45
2022/05/29 01:30:14;;;;;;;5.00;1.00;;;10.40;99.90;;;;;;5017361;28;20414;-49
2022/05/29 01:32:52;;;;;;;5.72;1.15;;;10.40;99.90;;;;;;4999851;28;20130;-44
2022/05/29 01:35:32;;;;;;;8.10;1.15;;;10.40;99.90;;;;;;5005071;28;20064;-48
2022/05/29 01:38:19;;;;;;;8.25;1.30;;;10.40;99.90;;;;;;5001707;28;20087;-44
2022/05/29 01:41:03;;;;;;;5.05;1.00;;;10.30;99.90;;;;;;5005014;28;20042;-47
2022/05/29 01:43:53;;;;;;;2.03;0.80;;;10.30;99.90;;;;;;5002356;28;20468;-48
2022/05/29 01:46:23;;;;;;;3.95;0.90;;;10.20;99.90;;;;;;5000873;28;20045;-49
2022/05/29 01:49:16;;;;;;;6.18;1.15;;;10.20;99.90;;;;;;5002777;28;20572;-46
2022/05/29 01:52:03;;;;;;;6.93;1.20;;;10.10;99.90;;;;;;5016183;28;20030;-48
2022/05/29 01:54:39;;;;;;;2.60;0.77;;;10.10;99.90;;;;;;5007548;28;20101;-48
2022/05/29 01:57:11;;;;;;;3.60;0.98;;;10.10;99.90;;;;;;5003702;28;20184;-42
2022/05/29 01:59:48;;;;;;;5.75;1.55;;;10.10;99.90;;;;;;5020584;28;20057;-48
2022/05/29 02:02:18;;;;;;;5.38;1.50;;;10.00;99.90;;;;;;4999003;28;20434;-47
2022/05/29 02:04:48;;;;;;;6.78;1.10;;;10.00;99.90;;;;;;5003235;28;20542;-50
2022/05/29 02:10:28;;;;;;;9.55;1.48;;;10.10;99.90;;;;;;4999472;28;20046;-46
2022/05/29 02:13:14;;;;;;;6.45;1.30;;;10.10;99.90;;;;;;5002092;28;20049;-44
2022/05/29 02:15:45;;;;;;;7.00;1.20;;;10.10;99.90;;;;;;5003038;28;20395;-46
2022/05/29 02:18:19;;;;;;;5.80;1.27;;;10.10;99.90;;;;;;5004629;28;20109;-40
2022/05/29 02:20:50;;;;;;;6.10;1.48;;;10.10;99.90;;;;;;5005678;28;20445;-45
2022/05/29 02:23:30;;;;;;;12.57;2.38;;;10.20;99.90;;;;;;5007148;28;20065;-46
2022/05/29 02:25:56;;;;;;;3.85;1.08;;;10.20;99.90;;;;;;5003465;28;20042;-42
2022/05/29 02:28:29;;;;;;;3.35;0.90;;;10.20;99.90;;;;;;5019347;28;20042;-50
2022/05/29 02:31:00;;;;;;;8.13;1.20;;;10.20;99.90;;;;;;4999055;28;20046;-45
2022/05/29 02:33:40;;;;;;;6.35;1.20;;;10.20;99.90;;;;;;4999500;28;20053;-47
2022/05/29 02:36:24;;;;;;;2.40;0.85;;;10.20;99.90;;;;;;5004685;28;20037;-45
2022/05/29 02:39:17;;;;;;;8.52;1.85;;;10.20;99.90;;;;;;5003078;28;20128;-44
2022/05/29 02:41:55;;;;;;;3.08;0.88;;;10.20;99.90;;;;;;5005092;28;20125;-49
2022/05/29 02:44:37;;;;;;;4.68;1.00;;;10.20;99.90;;;;;;5002371;28;20045;-44
2022/05/29 02:47:25;;;;;;;4.50;1.00;;;10.20;99.90;;;;;;4999619;28;20491;-43
2022/05/29 02:50:09;;;;;;;3.83;0.90;;;10.20;99.90;;;;;;5003697;28;20112;-50
2022/05/29 02:52:35;;;;;;;4.38;0.77;;;10.20;99.90;;;;;;5014798;28;20045;-45
2022/05/29 02:55:00;;;;;;;7.65;1.17;;;10.20;99.90;;;;;;4999870;28;20443;-43
2022/05/29 02:57:26;;;;;;;7.13;1.17;;;10.20;99.90;;;;;;5003672;28;20038;-44
2022/05/29 03:00:02;;;;;;;7.32;1.40;;;10.10;99.90;;;;;;5005514;28;20134;-48
2022/05/29 03:02:39;;;;;;;6.93;1.23;;;10.10;99.90;;;;;;5001805;28;20140;-47
2022/05/29 03:05:16;;;;;;;5.68;1.00;;;10.00;99.90;;;;;;5002802;28;20620;-48
2022/05/29 03:08:09;;;;;;;7.78;1.13;;;10.00;99.90;;;;;;5007793;28;20100;-44
2022/05/29 03:10:40;;;;;;;7.15;1.20;;;9.90;99.90;;;;;;4996694;28;20058;-48
2022/05/29 03:13:47;;;;;;;4.93;1.10;;;9.90;99.90;;;;;;4982699;28;20515;-41
2022/05/29 03:16:33;;;;;;;7.22;1.35;;;9.80;99.90;;;;;;4975842;28;20054;-45
2022/05/29 03:19:16;;;;;;;6.25;1.13;;;9.80;99.90;;;;;;4980539;28;20058;-48
2022/05/29 03:22:20;;;;;;;10.30;1.35;;;9.80;99.90;;;;;;4984913;28;20043;-44
2022/05/29 03:25:00;;;;;;;3.92;1.00;;;9.80;99.90;;;;;;4983520;28;20102;-48
2022/05/29 03:27:33;;;;;;;6.20;1.60;;;9.80;99.90;;;;;;4981043;28;20046;-48
2022/05/29 03:30:09;;;;;;;4.70;1.10;;;9.80;99.90;;;;;;4985921;28;20044;-49
2022/05/29 03:32:36;;;;;;;5.40;1.17;;;9.80;99.90;;;;;;4985383;28;20093;-49
2022/05/29 03:35:23;;;;;;;4.88;1.00;;;9.80;99.90;;;;;;4982464;28;20523;-45
2022/05/29 03:37:49;;;;;;;6.85;1.10;;;9.80;99.90;;;;;;4984891;28;20041;-46
2022/05/29 03:40:16;;;;;;;8.98;1.42;;;9.70;99.90;;;;;;4984997;28;20034;-48
2022/05/29 03:42:41;;;;;;;6.38;1.10;;;9.70;99.90;;;;;;4982066;28;20073;-43
2022/05/29 03:45:09;;;;;;;5.03;1.33;;;9.70;99.90;;;;;;4980715;28;20515;-47
2022/05/29 03:47:36;;;;;;;6.40;1.50;;;9.70;99.90;;;;;;4979669;28;20081;-45
2022/05/29 03:50:04;;;;;;;11.18;1.17;;;9.70;99.90;;;;;;4984029;28;20484;-44
2022/05/29 03:52:31;;;;;;;5.00;1.35;;;9.70;99.90;;;;;;4984975;28;20128;-48
2022/05/29 03:54:57;;;;;;;5.90;1.02;;;9.70;99.90;;;;;;4982179;28;20038;-44
2022/05/29 03:57:23;;;;;;;6.72;1.45;;;9.70;99.90;;;;;;4983458;28;20038;-43
2022/05/29 03:59:49;;;;;;;5.72;1.30;;;9.70;99.90;;;;;;4985677;28;20364;-49
2022/05/29 04:02:14;;;;;;;6.07;1.45;;;9.70;99.90;;;;;;4979386;28;20041;-45
2022/05/29 04:04:41;;;;;;;7.30;1.30;;;9.80;99.90;;;;;;4968056;28;20050;-42
2022/05/29 04:07:07;;;;;;;5.07;1.10;;;9.80;99.90;;;;;;4984158;28;20048;-44
2022/05/29 04:12:18;;;;;;;6.88;1.42;;;9.80;99.90;;;;;;4999783;28;20069;-41
2022/05/29 04:14:44;;;;;;;5.65;1.13;;;9.80;99.90;;;;;;5001456;28;20048;-48
2022/05/29 04:17:13;;;;;;;9.07;1.38;;;9.90;99.90;;;;;;4996746;28;20049;-45
2022/05/29 04:19:39;;;;;;;5.72;1.55;;;9.90;99.90;;;;;;5000787;28;20533;-45
2022/05/29 04:22:10;;;;;;;10.43;1.65;;;9.90;99.90;;;;;;4997080;28;20039;-43
2022/05/29 04:24:36;;;;;;;4.63;1.35;;;9.90;99.90;;;;;;4999587;28;20100;-44
2022/05/29 04:27:02;;;;;;;8.85;1.60;;;9.90;99.90;;;;;;5005649;28;20069;-42
2022/05/29 04:29:28;;;;;;;5.60;1.23;;;9.90;99.90;;;;;;5000200;28;20073;-48
2022/05/29 04:34:38;;;;;;;4.72;1.30;;;10.00;99.90;;;;;;5004424;28;20050;-41
2022/05/29 04:37:05;;;;;;;9.00;1.40;;;10.00;99.90;;;;;;4999459;28;20045;-49
2022/05/29 04:39:36;;;;;;;5.18;1.20;;;10.00;99.90;;;;;;5003039;28;20044;-49
2022/05/29 04:42:05;;;;;;;3.97;1.17;;;10.00;99.90;;;;;;4999220;28;20104;-44
2022/05/29 04:44:32;;;;;;;4.32;1.13;;;10.00;99.90;;;;;;4999574;28;20039;-45
2022/05/29 04:47:02;;;;;;;4.55;1.35;;;10.10;99.90;;;;;;5001816;28;20038;-48
2022/05/29 04:49:27;;;;;;;8.50;2.00;;;10.10;99.90;;;;;;5004163;28;20077;-46
2022/05/29 04:51:53;;;;;;;5.63;1.50;;;10.10;99.90;;;;;;5002142;28;20077;-47
2022/05/29 04:54:19;;;;;;;6.75;1.38;;;10.10;99.90;;;;;;5001085;28;20301;-44
2022/05/29 04:56:49;;;;;;;6.93;1.20;;;10.10;99.90;;;;;;4999519;28;20180;-48
2022/05/29 04:59:15;;;;;;;4.35;1.60;;;10.10;99.90;;;;;;4998997;28;21055;-44
2022/05/29 05:01:40;;;;;;;6.22;1.40;;;10.10;99.90;;;;;;4999385;28;20041;-51
2022/05/29 05:04:06;;;;;;;7.18;1.55;;;10.10;99.90;;;;;;5000591;28;20052;-50
2022/05/29 05:06:32;;;;;;;5.00;1.15;;;10.20;99.90;;;;;;5001372;28;20113;-47
2022/05/29 05:08:58;;;;;;;3.85;0.90;;;10.20;99.90;;;;;;5000713;28;20070;-44
2022/05/29 05:11:24;;;;;;;8.27;1.52;;;10.20;99.90;;;;;;5000171;28;20121;-46
2022/05/29 05:13:50;;;;;;;7.00;1.30;;;10.30;99.90;;;;;;5000481;28;20447;-49
2022/05/29 05:16:16;;;;;;;6.60;1.40;;;10.30;99.90;;;;;;5003293;28;20044;-47
2022/05/29 05:18:41;;;;;;;5.65;1.55;;;10.30;99.90;;;;;;4999353;28;20042;-45
2022/05/29 05:21:08;;;;;;;8.43;1.70;;;10.40;99.90;;;;;;5009193;28;20527;-48
2022/05/29 05:23:34;;;;;;;6.72;1.63;;;10.50;99.90;;;;;;5001887;28;20104;-47
2022/05/29 05:26:00;;;;;;;7.22;1.30;;;10.50;99.90;;;;;;5004134;28;20082;-49
2022/05/29 05:28:26;;;;;;;5.30;1.33;;;10.50;99.90;;;;;;5010927;28;20137;-49
2022/05/29 05:30:52;;;;;;;6.15;1.20;;;10.50;99.90;;;;;;5005042;28;20045;-47
2022/05/29 05:33:18;;;;;;;5.07;1.20;;;10.40;99.90;;;;;;5002608;28;20050;-47
2022/05/29 05:35:44;;;;;;;3.70;0.90;;;10.50;99.90;;;;;;5010348;28;20113;-41
2022/05/29 05:38:10;;;;;;;5.55;1.10;;;10.50;99.90;;;;;;5010889;28;20517;-49
2022/05/29 05:40:35;;;;;;;3.72;0.93;;;10.50;99.90;;;;;;5005629;28;20394;-49
2022/05/29 05:43:01;;;;;;;4.40;0.90;;;10.50;99.90;;;;;;5008356;28;20049;-48
2022/05/29 05:45:26;;;;;;;8.57;1.33;;;10.50;99.90;;;;;;5007743;28;20073;-48
2022/05/29 05:47:52;;;;;;;4.93;0.63;;;10.60;99.90;;;;;;5000765;28;20205;-45
2022/05/29 05:50:18;;;;;;;6.40;1.10;;;10.60;99.90;;;;;;5006810;28;20394;-45
2022/05/29 05:52:43;;;;;;;5.82;1.35;;;10.70;99.90;;;;;;5004684;28;20416;-44
2022/05/29 05:55:11;;;;;;;7.22;0.90;;;10.70;99.90;;;;;;5008139;28;20025;-47
2022/05/29 05:57:38;;;;;;;6.22;0.95;;;10.80;99.90;;;;;;5002031;28;20046;-43
2022/05/29 06:00:07;;;;;;;6.03;0.95;;;10.80;99.90;;;;;;5005286;28;20048;-49
2022/05/29 06:02:32;;;;;;;3.97;0.80;;;10.90;99.90;;;;;;5006388;28;20839;-46
2022/05/29 06:04:58;;;;;;;5.63;0.82;;;11.00;99.90;;;;;;5007519;28;20077;-43
2022/05/29 06:07:24;;;;;;;3.97;0.90;;;11.00;99.90;;;;;;5005243;28;20403;-44
2022/05/29 06:09:49;;;;;;;7.95;1.00;;;11.10;99.90;;;;;;5002061;28;20137;-45
2022/05/29 06:12:19;;;;;;;3.47;1.02;;;11.20;99.90;;;;;;5002657;28;20121;-45
2022/05/29 06:14:46;;;;;;;6.30;0.98;;;11.20;99.90;;;;;;5004491;28;20045;-44
2022/05/29 06:17:11;;;;;;;4.43;0.80;;;11.40;99.90;;;;;;5001045;28;20096;-45
2022/05/29 06:19:37;;;;;;;5.13;0.75;;;11.40;99.90;;;;;;5005929;28;20046;-40
2022/05/29 06:22:03;;;;;;;5.22;0.88;;;11.50;99.90;;;;;;5005831;28;20033;-49
2022/05/29 06:24:29;;;;;;;5.05;0.77;;;11.60;99.90;;;;;;5001349;28;20046;-44
2022/05/29 06:26:58;;;;;;;4.75;0.60;;;11.60;99.90;;;;;;5007153;28;20511;-45
2022/05/29 06:29:25;;;;;;;3.10;0.80;;;11.70;99.90;;;;;;5010286;28;20498;-42
2022/05/29 06:31:50;;;;;;;3.72;0.60;;;11.80;99.90;;;;;;5000581;28;20480;-45
2022/05/29 06:34:16;;;;;;;3.47;0.60;;;11.90;99.90;;;;;;5002257;28;20042;-50
2022/05/29 06:36:42;;;;;;;7.60;0.70;;;12.00;99.90;;;;;;5007191;28;20033;-46
2022/05/29 06:39:07;;;;;;;4.38;0.60;;;12.10;99.90;;;;;;5006867;28;20241;-43
2022/05/29 06:41:34;;;;;;;6.03;0.80;;;12.20;99.90;;;;;;5005989;28;20348;-47
2022/05/29 06:44:00;;;;;;;12.20;1.02;;;12.20;99.90;;;;;;5002266;28;20107;-45
2022/05/29 06:46:26;;;;;;;6.97;1.05;;;12.20;99.90;;;;;;5005549;28;20041;-47
2022/05/29 06:48:52;;;;;;;5.13;0.93;;;12.20;99.90;;;;;;5007221;28;20547;-46
2022/05/29 06:51:21;;;;;;;3.05;1.00;;;12.30;99.90;;;;;;5004177;28;20133;-43
2022/05/29 06:53:49;;;;;;;6.53;1.63;;;12.40;99.90;;;;;;5005970;28;20514;-45
2022/05/29 06:56:15;;;;;;;7.13;1.40;;;12.40;99.90;;;;;;5004142;28;20030;-49
2022/05/29 06:58:41;;;;;;;5.32;1.13;;;12.40;99.90;;;;;;4998828;28;20122;-49
2022/05/29 07:09:25;;;;;;;5.68;0.90;;;12.30;99.90;;;;;;5002762;28;20054;-46
2022/05/29 07:11:56;;;;;;;4.57;0.90;;;12.30;99.90;;;;;;5002103;28;20045;-46
2022/05/29 07:14:22;;;;;;;9.10;0.95;;;12.30;99.90;;;;;;5005100;28;20041;-48
2022/05/29 07:16:48;;;;;;;11.52;1.70;;;12.20;99.90;;;;;;5002464;28;20029;-44
2022/05/29 07:19:14;;;;;;;7.70;1.10;;;12.20;99.90;;;;;;5001776;28;20395;-43
2022/05/29 07:21:41;;;;;;;6.30;1.10;;;12.20;99.90;;;;;;5003334;28;20111;-43
2022/05/29 07:24:09;;;;;;;5.28;0.85;;;12.20;99.90;;;;;;4999963;28;20042;-44
2022/05/29 07:26:36;;;;;;;7.60;1.08;;;12.30;99.90;;;;;;5007472;28;20120;-47
2022/05/29 07:29:02;;;;;;;6.82;1.23;;;12.40;99.90;;;;;;5002012;28;20042;-49
2022/05/29 07:31:28;;;;;;;8.10;1.00;;;12.40;99.90;;;;;;5003770;28;20046;-44
2022/05/29 07:33:55;;;;;;;9.77;1.13;;;12.50;99.90;;;;;;5004462;28;20037;-48
2022/05/29 07:36:22;;;;;;;10.90;1.48;;;12.60;99.90;;;;;;5003342;28;20049;-48
2022/05/29 07:38:47;;;;;;;7.53;0.90;;;12.60;99.90;;;;;;5003138;28;20077;-48
2022/05/29 07:44:08;;;;;;;8.20;1.10;;;12.80;99.90;;;;;;4950726;28;20074;-42
2022/05/29 07:46:34;;;;;;;4.78;0.90;;;13.00;99.90;;;;;;5005712;28;20111;-46
2022/05/29 07:48:59;;;;;;;5.35;0.77;;;13.10;99.90;;;;;;5003242;28;20036;-43
2022/05/29 07:51:25;;;;;;;7.50;1.48;;;13.20;99.90;;;;;;5000308;28;20045;-49
2022/05/29 07:53:51;;;;;;;5.07;0.80;;;13.20;99.90;;;;;;5008156;28;20088;-43
2022/05/29 07:56:17;;;;;;;6.45;1.25;;;13.30;99.90;;;;;;5001781;28;20402;-43
2022/05/29 07:58:43;;;;;;;6.50;1.13;;;13.20;99.90;;;;;;4998230;28;20129;-46
2022/05/29 08:01:11;;;;;;;5.65;0.73;;;13.20;99.90;;;;;;5002676;28;20050;-41
2022/05/29 08:03:37;;;;;;;2.50;0.65;;;13.10;99.90;;;;;;5004164;28;20038;-43
2022/05/29 08:06:03;;;;;;;5.10;0.70;;;13.00;99.90;;;;;;5001913;28;20057;-42
2022/05/29 08:08:29;;;;;;;6.10;0.93;;;13.00;99.90;;;;;;5003935;28;20045;-41
2022/05/29 08:10:55;;;;;;;6.18;0.75;;;13.00;99.90;;;;;;5004054;28;20125;-47
2022/05/29 08:13:21;;;;;;;6.45;0.80;;;13.00;99.90;;;;;;5002648;28;20077;-44
2022/05/29 08:15:47;;;;;;;5.45;0.47;;;13.00;99.90;;;;;;4998906;28;20026;-44
2022/05/29 08:18:13;;;;;;;6.93;0.70;;;13.00;99.70;;;;;;5002936;28;20038;-44
2022/05/29 08:20:39;;;;;;;5.18;1.10;;;13.10;99.70;;;;;;5002726;28;20406;-40
2022/05/29 08:23:06;;;;;;;5.65;0.73;;;13.20;99.50;;;;;;5006294;28;20407;-43
2022/05/29 08:31:01;;;;;;;6.43;1.05;;;13.30;98.00;;;;;;5001945;28;20077;-43
2022/05/29 08:33:32;;;;;;;8.48;0.90;;;13.30;98.10;;;;;;5002611;28;20097;-46
2022/05/29 08:36:06;;;;;;;6.15;0.52;;;13.40;97.90;;;;;;4998097;28;20550;-41
2022/05/29 08:38:34;;;;;;;4.43;1.25;;;13.40;97.30;;;;;;5005965;28;20498;-44
2022/05/29 08:41:11;;;;;;;3.25;0.50;;;13.50;97.10;;;;;;5005347;28;20810;-40
2022/05/29 08:43:58;;;;;;;7.47;0.80;;;13.40;96.10;;;;;;5004551;28;20034;-44
2022/05/29 08:46:32;;;;;;;7.00;0.80;;;13.40;96.00;;;;;;4997944;28;20038;-42
2022/05/29 08:48:58;;;;;;;9.57;0.70;;;13.40;96.00;;;;;;4998775;28;20033;-41
2022/05/29 08:51:45;;;;;;;8.88;1.70;;;13.40;95.80;;;;;;5002157;28;20056;-43
2022/05/29 08:54:14;;;;;;;3.05;0.50;;;13.60;95.70;;;;;;5005007;28;20038;-42
2022/05/29 08:56:59;;;;;;;4.28;0.60;;;13.70;95.30;;;;;;5007058;28;20044;-44
2022/05/29 08:59:46;;;;;;;5.38;0.60;;;14.00;94.10;;;;;;5006622;28;20088;-41
2022/05/29 09:02:22;;;;;;;4.10;0.52;;;14.10;93.90;;;;;;5000456;28;20053;-45
2022/05/29 09:05:01;;;;;;;3.13;0.50;;;14.20;92.80;;;;;;5000601;28;20062;-44
2022/05/29 09:07:32;;;;;;;7.60;0.75;;;14.30;91.60;;;;;;5001988;28;20341;-45
2022/05/29 09:10:06;;;;;;;3.83;0.45;;;14.30;91.30;;;;;;5004610;28;20089;-41
2022/05/29 09:12:40;;;;;;;2.22;0.30;;;14.50;90.00;;;;;;5008353;28;20068;-43
2022/05/29 09:15:12;;;;;;;2.97;0.85;;;14.60;89.30;;;;;;5002490;28;20034;-45
2022/05/29 09:17:40;;;;;;;4.60;0.77;;;14.60;89.90;;;;;;5007213;28;20092;-42
2022/05/29 09:20:12;;;;;;;4.15;0.50;;;14.50;89.00;;;;;;5006894;28;20035;-41
2022/05/29 09:22:42;;;;;;;1.27;0.38;;;14.50;87.70;;;;;;5003600;28;20040;-42
2022/05/29 09:25:11;;;;;;;3.05;0.70;;;14.50;87.10;;;;;;5004069;28;20038;-42
2022/05/29 09:27:42;;;;;;;2.92;0.57;;;14.60;89.30;;;;;;5009613;28;20069;-45
2022/05/29 09:30:08;;;;;;;4.80;0.70;;;14.70;90.00;;;;;;5004098;28;20043;-40
2022/05/29 09:32:40;;;;;;;5.18;0.50;;;15.00;90.10;;;;;;4999890;28;20041;-42
2022/05/29 09:35:14;;;;;;;2.57;0.50;;;15.30;87.70;;;;;;5008864;28;20510;-42
2022/05/29 09:37:53;;;;;;;4.00;0.50;;;15.40;84.60;;;;;;5004880;28;20538;-44
2022/05/29 09:40:24;;;;;;;3.33;0.40;;;15.40;85.80;;;;;;5006708;28;20490;-42
2022/05/29 09:42:52;;;;;;;3.08;0.68;;;15.40;85.60;;;;;;5008849;28;20121;-44
2022/05/29 09:45:28;;;;;;;3.15;0.35;;;15.50;86.40;;;;;;5000905;28;20050;-43
2022/05/29 09:50:52;;;;;;;2.03;0.30;;;15.60;83.20;;;;;;5002491;28;20041;-40
2022/05/29 09:53:23;;;;;;;2.95;0.30;;;15.50;78.10;;;;;;5021846;28;20515;-44
2022/05/29 09:56:02;;;;;;;3.45;0.40;;;15.40;81.40;;;;;;5005056;28;20561;-43
2022/05/29 09:58:36;;;;;;;4.05;0.30;;;15.50;80.90;;;;;;5004504;28;20040;-40
2022/05/29 10:01:06;;;;;;;2.85;0.40;;;15.40;79.90;;;;;;5004036;28;20050;-42
2022/05/29 10:03:43;;;;;;;4.07;0.50;;;15.30;81.50;;;;;;4999253;28;20119;-41
2022/05/29 10:06:21;;;;;;;2.97;0.32;;;15.20;82.70;;;;;;5001675;28;20050;-43
2022/05/29 10:08:49;;;;;;;4.78;0.68;;;15.10;82.30;;;;;;5001848;28;20519;-40
2022/05/29 10:11:20;;;;;;;6.07;0.40;;;15.10;83.20;;;;;;5003946;28;20050;-42
2022/05/29 10:13:46;;;;;;;4.15;0.52;;;15.00;84.40;;;;;;5005077;28;20037;-43
2022/05/29 10:16:28;;;;;;;4.28;0.68;;;15.00;86.10;;;;;;5006812;28;20477;-44
2022/05/29 10:18:53;;;;;;;5.60;0.82;;;14.90;86.40;;;;;;5005399;28;20108;-43
2022/05/29 10:21:27;;;;;;;5.15;0.43;;;14.90;87.80;;;;;;5004497;28;20046;-41
2022/05/29 10:24:37;;;;;;;1.85;0.22;;;14.90;87.40;;;;;;5005817;28;20038;-43
2022/05/29 10:27:25;;;;;;;2.05;0.30;;;15.00;82.50;;;;;;4998477;28;20059;-44
2022/05/29 10:30:04;;;;;;;1.33;0.32;;;14.90;85.20;;;;;;4999499;28;20057;-42
2022/05/29 10:32:34;;;;;;;2.67;0.55;;;14.90;84.70;;;;;;5006372;28;20077;-41
2022/05/29 10:35:35;;;;;;;3.47;0.70;;;14.90;85.00;;;;;;5002653;28;20513;-39
2022/05/29 10:38:19;;;;;;;3.90;0.40;;;14.90;81.10;;;;;;5002813;28;20034;-43
2022/05/29 10:40:47;;;;;;;2.30;0.38;;;15.00;81.70;;;;;;5002042;28;20053;-41
2022/05/29 10:43:43;;;;;;;2.15;0.40;;;15.10;81.20;;;;;;5004932;28;20514;-42
2022/05/29 10:46:20;;;;;;;3.72;0.65;;;15.10;79.20;;;;;;4999895;28;20610;-41
2022/05/29 10:49:07;;;;;;;4.00;0.38;;;14.90;77.70;;;;;;5005436;28;20057;-44
2022/05/29 10:52:18;;;;;;;2.05;0.43;;;14.80;78.60;;;;;;5001398;28;20503;-39
2022/05/29 10:55:09;;;;;;;3.83;0.40;;;14.80;80.40;;;;;;4985581;28;20556;-42
2022/05/29 10:58:02;;;;;;;2.97;0.60;;;14.90;80.40;;;;;;5003370;28;20046;-46
2022/05/29 11:00:28;;;;;;;;;;;15.00;80.70;;;;;;5002795;28;20050;-50
2022/05/29 11:03:19;;;;;;;3.33;0.60;;;14.80;79.00;;;;;;5000611;28;19988;-46
2022/05/29 11:06:13;;;;;;;3.13;0.47;;;14.80;81.60;;;;;;5003731;28;20186;-45
2022/05/29 11:09:01;;;;;;;3.95;0.40;;;14.60;82.60;;;;;;4986680;28;20080;-43
2022/05/29 11:11:48;;;;;;;1.90;0.43;;;14.40;85.50;;;;;;5001949;28;20058;-41
2022/05/29 11:14:48;;;;;;;2.30;0.43;;;14.20;88.70;;;;;;5006306;28;20034;-44
2022/05/29 11:17:52;;;;;;;4.25;0.85;;;14.20;90.20;;;;;;5004403;28;20109;-42
2022/05/29 11:20:21;;;;;;;6.97;0.93;;;14.00;91.20;;;;;;5004516;28;20046;-46
2022/05/29 11:23:02;;;;;;;4.75;0.70;;;14.00;91.60;;;;;;5004922;28;20048;-46
2022/05/29 11:25:43;;;;;;;3.53;0.60;;;14.00;92.20;;;;;;5005027;28;20052;-45
2022/05/29 11:28:30;;;;;;;2.63;0.60;;;14.20;92.40;;;;;;5003553;28;20038;-45
2022/05/29 11:31:03;;;;;;;2.38;0.32;;;14.30;92.10;;;;;;5000771;28;20392;-41
2022/05/29 11:33:44;;;;;;;1.58;0.40;;;14.40;91.30;;;;;;5002332;28;20038;-44
2022/05/29 11:36:27;;;;;;;5.88;0.60;;;14.60;90.80;;;;;;5002134;28;20044;-39
2022/05/29 11:38:53;;;;;;;2.17;0.30;;;14.80;90.20;;;;;;4999556;28;20056;-42
2022/05/29 11:41:30;;;;;;;5.72;0.50;;;14.90;91.10;;;;;;5004908;28;20494;-45
2022/05/29 11:44:05;;;;;;;2.50;0.35;;;15.10;89.80;;;;;;5004538;28;20034;-45
2022/05/29 11:52:37;;;;;;;5.90;0.57;;;15.10;83.90;;;;;;5004607;28;20562;-42
2022/05/29 11:55:21;;;;;;;1.75;0.30;;;14.90;79.70;;;;;;5000148;28;20046;-42
2022/05/29 11:57:56;;;;;;;5.28;0.43;;;14.90;81.10;;;;;;5000243;28;20037;-45
2022/05/29 12:00:43;;;;;;;5.68;0.43;;;14.90;80.30;;;;;;5000490;28;20042;-47
2022/05/29 12:03:32;;;;;;;3.85;0.30;;;15.10;79.50;;;;;;5002042;28;20049;-44
2022/05/29 12:06:12;;;;;;;3.03;0.57;;;15.30;77.80;;;;;;5005037;28;20048;-42
2022/05/29 12:08:59;;;;;;;1.48;0.30;;;15.30;75.40;;;;;;4999732;28;20046;-45
2022/05/29 12:11:42;;;;;;;3.58;0.30;;;15.40;76.40;;;;;;4993369;28;20472;-43
2022/05/29 12:14:30;;;;;;;2.13;0.60;;;15.50;75.50;;;;;;4985339;28;20089;-44
2022/05/29 12:17:31;;;;;;;2.13;0.40;;;15.70;73.50;;;;;;4982885;28;20058;-41
2022/05/29 12:20:08;;;;;;;1.60;0.40;;;15.80;73.00;;;;;;4959596;28;20031;-42
2022/05/29 12:22:47;;;;;;;0.82;0.20;;;15.90;72.20;;;;;;4983326;28;20046;-45
2022/05/29 12:25:37;;;;;;;2.03;0.40;;;16.00;70.60;;;;;;4979082;28;20125;-44
2022/05/29 12:28:08;;;;;;;2.17;0.20;;;16.00;70.50;;;;;;4982633;28;20352;-41
2022/05/29 12:30:41;;;;;;;1.50;0.30;;;16.00;69.40;;;;;;4986391;28;20786;-41
2022/05/29 12:33:16;;;;;;;2.67;0.47;;;15.90;70.30;;;;;;4987401;28;20464;-44
2022/05/29 12:36:16;;;;;;;3.60;0.32;;;15.70;71.00;;;;;;4988964;28;20356;-41
2022/05/29 12:38:57;;;;;;;1.60;0.43;;;15.60;71.40;;;;;;4972859;28;20106;-42
2022/05/29 12:41:42;;;;;;;2.08;0.43;;;15.40;74.60;;;;;;4986444;28;20042;-41
2022/05/29 12:44:23;;;;;;;3.80;0.50;;;15.30;75.90;;;;;;4987714;28;20491;-41
2022/05/29 12:47:18;;;;;;;3.15;0.40;;;15.10;74.60;;;;;;4986494;28;20094;-44
2022/05/29 12:50:03;;;;;;;3.42;0.50;;;15.00;73.90;;;;;;4956032;28;20062;-45
2022/05/29 12:53:06;;;;;;;2.92;0.57;;;15.00;76.30;;;;;;4981181;28;20038;-41
2022/05/29 12:55:51;;;;;;;2.13;0.57;;;14.90;77.10;;;;;;4982285;28;20050;-46
2022/05/29 12:58:51;;;;;;;4.10;1.02;;;14.80;80.20;;;;;;4988950;28;20477;-47
2022/05/29 13:01:42;;;;;;;3.72;0.40;;;14.80;80.60;;;;;;4988018;28;20061;-43
2022/05/29 13:04:36;;;;;;;2.97;0.20;;;14.80;82.60;;;;;;4985067;28;20166;-43
2022/05/29 13:07:25;;;;;;;2.90;0.32;;;14.80;80.30;;;;;;4988999;28;20031;-47
2022/05/29 13:10:14;;;;;;;4.22;0.50;;;14.70;81.20;;;;;;4988902;28;20070;-41
2022/05/29 13:12:48;;;;;;;3.05;0.70;;;14.80;82.20;;;;;;4983491;28;20050;-45
2022/05/29 13:15:35;;;;;;;3.20;0.47;;;15.00;82.30;;;;;;4984316;28;20510;-42
2022/05/29 13:21:18;;;;;;;1.35;0.30;;;15.10;83.20;;;;;;4992209;28;20049;-42
2022/05/29 13:23:53;;;;;;;2.15;0.30;;;15.30;78.80;;;;;;4972848;28;20152;-44
2022/05/29 13:26:30;;;;;;;3.63;0.40;;;15.60;79.10;;;;;;4987694;28;20034;-44
2022/05/29 13:29:07;;;;;;;2.05;0.40;;;15.80;75.60;;;;;;4986389;28;20125;-42
2022/05/29 13:32:25;;;;;;;3.65;0.70;;;16.00;74.40;;;;;;4986432;28;20129;-45
2022/05/29 13:35:04;;;;;;;3.10;0.60;;;16.00;71.80;;;;;;4963438;28;20502;-42
2022/05/29 13:37:42;;;;;;;3.53;0.65;;;15.90;74.40;;;;;;4985676;28;20043;-44
2022/05/29 13:40:29;;;;;;;1.63;0.55;;;15.80;75.30;;;;;;4987202;28;20526;-46
2022/05/29 13:43:15;;;;;;;5.82;0.70;;;15.50;76.20;;;;;;4971878;28;20478;-43
2022/05/29 13:45:44;;;;;;;4.78;0.98;;;15.20;77.80;;;;;;4987890;28;20073;-42
2022/05/29 13:48:17;;;;;;;7.10;0.80;;;14.80;82.40;;;;;;4984136;28;20558;-42
2022/05/29 13:50:54;;;;;;;4.57;0.88;;;14.60;85.00;;;;;;4987268;28;20042;-43
2022/05/29 13:53:32;;;;;;;6.05;0.80;;;14.50;86.40;;;;;;4983971;28;20053;-43
2022/05/29 13:56:06;;;;;;;5.65;1.00;;;14.40;88.90;;;;;;4988530;28;20038;-45
2022/05/29 14:04:29;;;;;;;3.72;0.63;;;14.30;91.50;;;;;;4988137;28;20072;-40
2022/05/29 14:07:13;;;;;;;9.00;0.50;;;14.40;90.70;;;;;;4987292;28;20045;-43